PWSweather.com
Personal Weather Stations
Station Observations
KCARIDGE3
Ridgecrest, CA 93555

Ridgecrest, CA 93555

Lat: 35.62083817, Lon: -117.6733017

Elevation: 2315

Station Type:

High Low Average
Temperature 75.7°F24.3°F 45.0°F7.2°F 58.9°F14.9°F
Dew Point 31.5°F-0.3°F 25.0°F-3.9°F 28.8°F-1.8°F
Winds 6.0 mph SW9.7 mph SW Calm Calm 1.6 mph 2.6 mph
Wind Gusts 8.1 mph13.0 mph -- 1.6 mph2.6 mph
Humidity 53% 16% 34%
Pressure 0.00 in0.00 in 0.00 in0.00 in -
Precipitation 0.00 in0.00 in - -
Hour Temp Dew Point Humidity Winds Wind Gusts Pressure Precip Precip Rate Daily Precip Total
12:02 AM 51.4°F10.8°C 29.1°F-1.6°C 42% Calm Calm -- -338605.1 mb - 0.00 in0.0 mm 0.00 in0.0 mm
12:07 AM 51.3°F10.7°C 28.9°F-1.7°C 42% Calm Calm 2.0 mph3.2 kmh -338605.1 mb - 0.00 in0.0 mm 0.00 in0.0 mm
12:12 AM 50.4°F10.2°C 28.8°F-1.8°C 43% 0.9 mph W1.4 kmh W 2.9 mph4.7 kmh -338605.1 mb - 0.00 in0.0 mm 0.00 in0.0 mm
12:17 AM 50.0°F10.0°C 28.9°F-1.7°C 44% 2.9 mph W4.7 kmh W 4.0 mph6.4 kmh -338605.1 mb - 0.00 in0.0 mm 0.00 in0.0 mm
12:22 AM 49.5°F9.7°C 28.4°F-2.0°C 44% 4.0 mph WSW6.4 kmh WSW 4.0 mph6.4 kmh -338605.1 mb - 0.00 in0.0 mm 0.00 in0.0 mm
12:27 AM 49.6°F9.8°C 28.6°F-1.9°C 44% 4.0 mph WSW6.4 kmh WSW 2.9 mph4.7 kmh -338605.1 mb - 0.00 in0.0 mm 0.00 in0.0 mm
12:32 AM 49.6°F9.8°C 28.6°F-1.9°C 44% 4.0 mph WSW6.4 kmh WSW 4.0 mph6.4 kmh -338605.1 mb - 0.00 in0.0 mm 0.00 in0.0 mm
12:37 AM 49.8°F9.9°C 28.8°F-1.8°C 44% 4.0 mph W6.4 kmh W 4.0 mph6.4 kmh -338605.1 mb - 0.00 in0.0 mm 0.00 in0.0 mm
12:42 AM 49.5°F9.7°C 28.4°F-2.0°C 44% 4.0 mph W6.4 kmh W 2.9 mph4.7 kmh -338605.1 mb - 0.00 in0.0 mm 0.00 in0.0 mm
12:47 AM 49.3°F9.6°C 28.8°F-1.8°C 45% 4.0 mph W6.4 kmh W 4.0 mph6.4 kmh -338605.1 mb - 0.00 in0.0 mm 0.00 in0.0 mm
12:52 AM 49.5°F9.7°C 28.4°F-2.0°C 44% 4.0 mph WSW6.4 kmh WSW 4.0 mph6.4 kmh -338605.1 mb - 0.00 in0.0 mm 0.00 in0.0 mm
12:57 AM 49.6°F9.8°C 28.6°F-1.9°C 44% 4.0 mph WSW6.4 kmh WSW 2.0 mph3.2 kmh -338605.1 mb - 0.00 in0.0 mm 0.00 in0.0 mm
01:02 AM 49.5°F9.7°C 28.4°F-2.0°C 44% 2.9 mph WSW4.7 kmh WSW 2.0 mph3.2 kmh -338605.1 mb - 0.00 in0.0 mm 0.00 in0.0 mm
01:07 AM 49.6°F9.8°C 29.1°F-1.6°C 45% 2.0 mph WSW3.2 kmh WSW -- -338605.1 mb - 0.00 in0.0 mm 0.00 in0.0 mm
01:12 AM 49.6°F9.8°C 28.6°F-1.9°C 44% 0.9 mph SW1.4 kmh SW 0.9 mph1.4 kmh -338605.1 mb - 0.00 in0.0 mm 0.00 in0.0 mm
01:17 AM 49.6°F9.8°C 28.6°F-1.9°C 44% 0.9 mph SSW1.4 kmh SSW 2.9 mph4.7 kmh -338605.1 mb - 0.00 in0.0 mm 0.00 in0.0 mm
01:22 AM 49.5°F9.7°C 28.9°F-1.7°C 45% 2.9 mph SW4.7 kmh SW 4.0 mph6.4 kmh -338605.1 mb - 0.00 in0.0 mm 0.00 in0.0 mm
01:27 AM 49.5°F9.7°C 28.9°F-1.7°C 45% 2.9 mph SSW4.7 kmh SSW 0.9 mph1.4 kmh -338605.1 mb - 0.00 in0.0 mm 0.00 in0.0 mm
01:32 AM 49.3°F9.6°C 28.8°F-1.8°C 45% 2.9 mph SW4.7 kmh SW 2.9 mph4.7 kmh -338605.1 mb - 0.00 in0.0 mm 0.00 in0.0 mm
01:37 AM 49.3°F9.6°C 28.8°F-1.8°C 45% 2.9 mph SW4.7 kmh SW 2.9 mph4.7 kmh -338605.1 mb - 0.00 in0.0 mm 0.00 in0.0 mm
01:42 AM 49.3°F9.6°C 28.8°F-1.8°C 45% 2.9 mph SW4.7 kmh SW 2.0 mph3.2 kmh -338605.1 mb - 0.00 in0.0 mm 0.00 in0.0 mm
01:47 AM 49.1°F9.5°C 28.8°F-1.8°C 45% 2.9 mph SW4.7 kmh SW 2.0 mph3.2 kmh -338605.1 mb - 0.00 in0.0 mm 0.00 in0.0 mm
01:52 AM 49.1°F9.5°C 28.8°F-1.8°C 45% 2.0 mph SW3.2 kmh SW -- -338605.1 mb - 0.00 in0.0 mm 0.00 in0.0 mm
01:57 AM 48.9°F9.4°C 28.6°F-1.9°C 45% Calm Calm -- -338605.1 mb - 0.00 in0.0 mm 0.00 in0.0 mm
02:02 AM 48.9°F9.4°C 28.6°F-1.9°C 45% Calm Calm -- -338605.1 mb - 0.00 in0.0 mm 0.00 in0.0 mm
02:07 AM 49.1°F9.5°C 28.8°F-1.8°C 45% Calm Calm -- -338605.1 mb - 0.00 in0.0 mm 0.00 in0.0 mm
02:12 AM 48.9°F9.4°C 28.6°F-1.9°C 45% Calm Calm -- -338605.1 mb - 0.00 in0.0 mm 0.00 in0.0 mm
02:17 AM 49.1°F9.5°C 28.8°F-1.8°C 45% Calm Calm -- -338605.1 mb - 0.00 in0.0 mm 0.00 in0.0 mm
02:22 AM 49.1°F9.5°C 28.8°F-1.8°C 45% Calm Calm -- -338605.1 mb - 0.00 in0.0 mm 0.00 in0.0 mm
02:27 AM 49.5°F9.7°C 28.9°F-1.7°C 45% Calm Calm -- -338605.1 mb - 0.00 in0.0 mm 0.00 in0.0 mm
02:32 AM 49.5°F9.7°C 28.9°F-1.7°C 45% Calm Calm -- -338605.1 mb - 0.00 in0.0 mm 0.00 in0.0 mm
02:37 AM 49.1°F9.5°C 28.8°F-1.8°C 45% Calm Calm 0.9 mph1.4 kmh -338605.1 mb - 0.00 in0.0 mm 0.00 in0.0 mm
02:42 AM 48.6°F9.2°C 28.8°F-1.8°C 46% 0.9 mph SSW1.4 kmh SSW 2.9 mph4.7 kmh -338605.1 mb - 0.00 in0.0 mm 0.00 in0.0 mm
02:47 AM 48.2°F9.0°C 28.4°F-2.0°C 46% 2.0 mph SSW3.2 kmh SSW 2.9 mph4.7 kmh -338605.1 mb - 0.00 in0.0 mm 0.00 in0.0 mm
02:52 AM 47.8°F8.8°C 28.0°F-2.2°C 46% 2.9 mph SW4.7 kmh SW 2.0 mph3.2 kmh -338605.1 mb - 0.00 in0.0 mm 0.00 in0.0 mm
02:57 AM 47.5°F8.6°C 28.2°F-2.1°C 47% 2.0 mph SW3.2 kmh SW 2.0 mph3.2 kmh -338605.1 mb - 0.00 in0.0 mm 0.00 in0.0 mm
03:02 AM 47.3°F8.5°C 28.0°F-2.2°C 47% 2.0 mph SW3.2 kmh SW 0.9 mph1.4 kmh -338605.1 mb - 0.00 in0.0 mm 0.00 in0.0 mm
03:07 AM 47.1°F8.4°C 27.9°F-2.3°C 47% 2.0 mph WSW3.2 kmh WSW 2.0 mph3.2 kmh -338605.1 mb - 0.00 in0.0 mm 0.00 in0.0 mm
03:12 AM 47.1°F8.4°C 28.4°F-2.0°C 48% 2.0 mph W3.2 kmh W 2.9 mph4.7 kmh -338605.1 mb - 0.00 in0.0 mm 0.00 in0.0 mm
03:17 AM 47.1°F8.4°C 28.4°F-2.0°C 48% 2.9 mph SW4.7 kmh SW 4.0 mph6.4 kmh -338605.1 mb - 0.00 in0.0 mm 0.00 in0.0 mm
03:22 AM 47.1°F8.4°C 28.4°F-2.0°C 48% 2.9 mph SSW4.7 kmh SSW 4.0 mph6.4 kmh -338605.1 mb - 0.00 in0.0 mm 0.00 in0.0 mm
03:27 AM 47.5°F8.6°C 28.8°F-1.8°C 48% 4.0 mph SSW6.4 kmh SSW 4.0 mph6.4 kmh -338605.1 mb - 0.00 in0.0 mm 0.00 in0.0 mm
03:32 AM 47.5°F8.6°C 28.8°F-1.8°C 48% 4.0 mph SSW6.4 kmh SSW 2.9 mph4.7 kmh -338605.1 mb - 0.00 in0.0 mm 0.00 in0.0 mm
03:37 AM 47.7°F8.7°C 28.9°F-1.7°C 48% 4.0 mph SW6.4 kmh SW 4.0 mph6.4 kmh -338605.1 mb - 0.00 in0.0 mm 0.00 in0.0 mm
03:42 AM 47.7°F8.7°C 28.9°F-1.7°C 48% 4.0 mph SW6.4 kmh SW 4.9 mph7.9 kmh -338605.1 mb - 0.00 in0.0 mm 0.00 in0.0 mm
03:47 AM 47.5°F8.6°C 28.2°F-2.1°C 47% 4.9 mph SW7.9 kmh SW 6.9 mph11.1 kmh -338605.1 mb - 0.00 in0.0 mm 0.00 in0.0 mm
03:52 AM 47.5°F8.6°C 28.2°F-2.1°C 47% 6.0 mph SW9.7 kmh SW 6.0 mph9.7 kmh -338605.1 mb - 0.00 in0.0 mm 0.00 in0.0 mm
03:57 AM 47.5°F8.6°C 28.2°F-2.1°C 47% 6.0 mph SW9.7 kmh SW 4.9 mph7.9 kmh -338605.1 mb - 0.00 in0.0 mm 0.00 in0.0 mm
04:02 AM 47.7°F8.7°C 27.9°F-2.3°C 46% 4.9 mph SW7.9 kmh SW 6.0 mph9.7 kmh -338605.1 mb - 0.00 in0.0 mm 0.00 in0.0 mm
04:07 AM 48.0°F8.9°C 28.2°F-2.1°C 46% 4.0 mph SW6.4 kmh SW 4.0 mph6.4 kmh -338605.1 mb - 0.00 in0.0 mm 0.00 in0.0 mm
04:12 AM 48.4°F9.1°C 28.6°F-1.9°C 46% 4.0 mph SSW6.4 kmh SSW 4.0 mph6.4 kmh -338605.1 mb - 0.00 in0.0 mm 0.00 in0.0 mm
04:17 AM 48.4°F9.1°C 28.6°F-1.9°C 46% 4.0 mph S6.4 kmh S 0.9 mph1.4 kmh -338605.1 mb - 0.00 in0.0 mm 0.00 in0.0 mm
04:22 AM 48.2°F9.0°C 28.4°F-2.0°C 46% 2.0 mph S3.2 kmh S 4.0 mph6.4 kmh -338605.1 mb - 0.00 in0.0 mm 0.00 in0.0 mm
04:27 AM 48.2°F9.0°C 27.9°F-2.3°C 45% 2.0 mph S3.2 kmh S 2.9 mph4.7 kmh -338605.1 mb - 0.00 in0.0 mm 0.00 in0.0 mm
04:32 AM 48.2°F9.0°C 28.4°F-2.0°C 46% 2.9 mph S4.7 kmh S -- -338605.1 mb - 0.00 in0.0 mm 0.00 in0.0 mm
04:37 AM 48.0°F8.9°C 28.2°F-2.1°C 46% 0.9 mph S1.4 kmh S -- -338605.1 mb - 0.00 in0.0 mm 0.00 in0.0 mm
04:42 AM 47.8°F8.8°C 28.0°F-2.2°C 46% Calm Calm 0.9 mph1.4 kmh -338605.1 mb - 0.00 in0.0 mm 0.00 in0.0 mm
04:47 AM 47.7°F8.7°C 27.9°F-2.3°C 46% 0.9 mph S1.4 kmh S 0.9 mph1.4 kmh -338605.1 mb - 0.00 in0.0 mm 0.00 in0.0 mm
04:52 AM 47.5°F8.6°C 28.2°F-2.1°C 47% 0.9 mph S1.4 kmh S -- -338605.1 mb - 0.00 in0.0 mm 0.00 in0.0 mm
04:57 AM 47.5°F8.6°C 28.2°F-2.1°C 47% Calm Calm -- -338605.1 mb - 0.00 in0.0 mm 0.00 in0.0 mm
05:02 AM 47.1°F8.4°C 27.9°F-2.3°C 47% Calm Calm -- -338605.1 mb - 0.00 in0.0 mm 0.00 in0.0 mm
05:07 AM 47.1°F8.4°C 27.9°F-2.3°C 47% Calm Calm 0.9 mph1.4 kmh -338605.1 mb - 0.00 in0.0 mm 0.00 in0.0 mm
05:12 AM 46.9°F8.3°C 28.2°F-2.1°C 48% 0.9 mph S1.4 kmh S 2.0 mph3.2 kmh -338605.1 mb - 0.00 in0.0 mm 0.00 in0.0 mm
05:17 AM 46.8°F8.2°C 28.0°F-2.2°C 48% 2.0 mph SSE3.2 kmh SSE 2.0 mph3.2 kmh -338605.1 mb - 0.00 in0.0 mm 0.00 in0.0 mm
05:22 AM 46.6°F8.1°C 28.4°F-2.0°C 49% 2.9 mph SSE4.7 kmh SSE 2.0 mph3.2 kmh -338605.1 mb - 0.00 in0.0 mm 0.00 in0.0 mm
05:27 AM 46.4°F8.0°C 28.8°F-1.8°C 50% 2.0 mph SSE3.2 kmh SSE 0.9 mph1.4 kmh -338605.1 mb - 0.00 in0.0 mm 0.00 in0.0 mm
05:32 AM 46.2°F7.9°C 28.6°F-1.9°C 50% 0.9 mph SSE1.4 kmh SSE -- -338605.1 mb - 0.00 in0.0 mm 0.00 in0.0 mm
05:37 AM 46.0°F7.8°C 28.4°F-2.0°C 50% 0.9 mph SSE1.4 kmh SSE -- -338605.1 mb - 0.00 in0.0 mm 0.00 in0.0 mm
05:42 AM 45.7°F7.6°C 28.6°F-1.9°C 51% Calm Calm -- -338605.1 mb - 0.00 in0.0 mm 0.00 in0.0 mm
05:47 AM 45.7°F7.6°C 28.6°F-1.9°C 51% Calm Calm -- -338605.1 mb - 0.00 in0.0 mm 0.00 in0.0 mm
05:52 AM 45.5°F7.5°C 28.4°F-2.0°C 51% Calm Calm -- -338605.1 mb - 0.00 in0.0 mm 0.00 in0.0 mm
05:57 AM 45.7°F7.6°C 28.6°F-1.9°C 51% Calm Calm -- -338605.1 mb - 0.00 in0.0 mm 0.00 in0.0 mm
06:02 AM 45.9°F7.7°C 28.2°F-2.1°C 50% Calm Calm -- -338605.1 mb - 0.00 in0.0 mm 0.00 in0.0 mm
06:07 AM 45.9°F7.7°C 27.9°F-2.3°C 49% Calm Calm -- -338605.1 mb - 0.00 in0.0 mm 0.00 in0.0 mm
06:12 AM 45.9°F7.7°C 27.9°F-2.3°C 49% Calm Calm -- -338605.1 mb - 0.00 in0.0 mm 0.00 in0.0 mm
06:17 AM 46.0°F7.8°C 27.9°F-2.3°C 49% Calm Calm 2.0 mph3.2 kmh -338605.1 mb - 0.00 in0.0 mm 0.00 in0.0 mm
06:22 AM 46.2°F7.9°C 28.6°F-1.9°C 50% 0.9 mph SSE1.4 kmh SSE 2.0 mph3.2 kmh -338605.1 mb - 0.00 in0.0 mm 0.00 in0.0 mm
06:27 AM 46.2°F7.9°C 28.6°F-1.9°C 50% 2.0 mph SE3.2 kmh SE -- -338605.1 mb - 0.00 in0.0 mm 0.00 in0.0 mm
06:32 AM 46.2°F7.9°C 28.6°F-1.9°C 50% 0.9 mph SE1.4 kmh SE -- -338605.1 mb - 0.00 in0.0 mm 0.00 in0.0 mm
06:37 AM 46.0°F7.8°C 28.4°F-2.0°C 50% Calm Calm -- -338605.1 mb - 0.00 in0.0 mm 0.00 in0.0 mm
06:42 AM 46.0°F7.8°C 28.4°F-2.0°C 50% Calm Calm -- -338605.1 mb - 0.00 in0.0 mm 0.00 in0.0 mm
06:47 AM 45.5°F7.5°C 28.4°F-2.0°C 51% Calm Calm 0.9 mph1.4 kmh -338605.1 mb - 0.00 in0.0 mm 0.00 in0.0 mm
06:52 AM 45.1°F7.3°C 28.0°F-2.2°C 51% Calm Calm -- -338605.1 mb - 0.00 in0.0 mm 0.00 in0.0 mm
06:57 AM 45.1°F7.3°C 28.6°F-1.9°C 52% Calm Calm -- -338605.1 mb - 0.00 in0.0 mm 0.00 in0.0 mm
07:02 AM 45.0°F7.2°C 28.4°F-2.0°C 52% Calm Calm -- -338605.1 mb - 0.00 in0.0 mm 0.00 in0.0 mm
07:07 AM 45.1°F7.3°C 28.6°F-1.9°C 52% Calm Calm -- -338605.1 mb - 0.00 in0.0 mm 0.00 in0.0 mm
07:12 AM 45.1°F7.3°C 28.6°F-1.9°C 52% Calm Calm 2.0 mph3.2 kmh -338605.1 mb - 0.00 in0.0 mm 0.00 in0.0 mm
07:17 AM 45.1°F7.3°C 28.6°F-1.9°C 52% 0.9 mph SE1.4 kmh SE -- -338605.1 mb - 0.00 in0.0 mm 0.00 in0.0 mm
07:22 AM 45.3°F7.4°C 28.8°F-1.8°C 52% 0.9 mph SE1.4 kmh SE -- -338605.1 mb - 0.00 in0.0 mm 0.00 in0.0 mm
07:27 AM 45.7°F7.6°C 29.1°F-1.6°C 52% Calm Calm -- -338605.1 mb - 0.00 in0.0 mm 0.00 in0.0 mm
07:32 AM 45.9°F7.7°C 29.7°F-1.3°C 53% Calm Calm -- -338605.1 mb - 0.00 in0.0 mm 0.00 in0.0 mm
07:37 AM 46.2°F7.9°C 29.5°F-1.4°C 52% Calm Calm -- -338605.1 mb - 0.00 in0.0 mm 0.00 in0.0 mm
07:42 AM 46.6°F8.1°C 29.8°F-1.2°C 52% Calm Calm -- -338605.1 mb - 0.00 in0.0 mm 0.00 in0.0 mm
07:47 AM 46.9°F8.3°C 29.8°F-1.2°C 51% Calm Calm -- -338605.1 mb - 0.00 in0.0 mm 0.00 in0.0 mm
07:52 AM 47.3°F8.5°C 30.0°F-1.1°C 51% Calm Calm -- -338605.1 mb - 0.00 in0.0 mm 0.00 in0.0 mm
07:57 AM 47.7°F8.7°C 30.0°F-1.1°C 50% Calm Calm 0.9 mph1.4 kmh -338605.1 mb - 0.00 in0.0 mm 0.00 in0.0 mm
08:02 AM 48.0°F8.9°C 30.2°F-1.0°C 50% Calm Calm -- -338605.1 mb - 0.00 in0.0 mm 0.00 in0.0 mm
08:07 AM 48.7°F9.3°C 29.8°F-1.2°C 48% Calm Calm -- -338605.1 mb - 0.00 in0.0 mm 0.00 in0.0 mm
08:12 AM 49.5°F9.7°C 29.5°F-1.4°C 46% Calm Calm -- -338605.1 mb - 0.00 in0.0 mm 0.00 in0.0 mm
08:17 AM 49.8°F9.9°C 29.8°F-1.2°C 46% Calm Calm -- -338605.1 mb - 0.00 in0.0 mm 0.00 in0.0 mm
08:22 AM 50.0°F10.0°C 30.0°F-1.1°C 46% Calm Calm -- -338605.1 mb - 0.00 in0.0 mm 0.00 in0.0 mm
08:27 AM 50.4°F10.2°C 30.4°F-0.9°C 46% Calm Calm -- -338605.1 mb - 0.00 in0.0 mm 0.00 in0.0 mm
08:32 AM 50.7°F10.4°C 29.7°F-1.3°C 44% Calm Calm -- -338605.1 mb - 0.00 in0.0 mm 0.00 in0.0 mm
08:37 AM 51.3°F10.7°C 29.5°F-1.4°C 43% Calm Calm -- -338605.1 mb - 0.00 in0.0 mm 0.00 in0.0 mm
08:42 AM 51.4°F10.8°C 30.2°F-1.0°C 44% Calm Calm -- -338605.1 mb - 0.00 in0.0 mm 0.00 in0.0 mm
08:47 AM 52.0°F11.1°C 30.2°F-1.0°C 43% Calm Calm -- -338605.1 mb - 0.00 in0.0 mm 0.00 in0.0 mm
08:52 AM 52.3°F11.3°C 30.6°F-0.8°C 43% Calm Calm -- -338605.1 mb - 0.00 in0.0 mm 0.00 in0.0 mm
08:57 AM 53.1°F11.7°C 30.6°F-0.8°C 42% Calm Calm 0.9 mph1.4 kmh -338605.1 mb - 0.00 in0.0 mm 0.00 in0.0 mm
09:02 AM 53.4°F11.9°C 31.5°F-0.3°C 43% 0.9 mph SSE1.4 kmh SSE 2.9 mph4.7 kmh -338605.1 mb - 0.00 in0.0 mm 0.00 in0.0 mm
09:07 AM 55.0°F12.8°C 30.6°F-0.8°C 39% 2.0 mph WSW3.2 kmh WSW 2.9 mph4.7 kmh -338605.1 mb - 0.00 in0.0 mm 0.00 in0.0 mm
09:12 AM 56.5°F13.6°C 29.8°F-1.2°C 36% 2.9 mph WSW4.7 kmh WSW 4.0 mph6.4 kmh -338605.1 mb - 0.00 in0.0 mm 0.00 in0.0 mm
09:17 AM 57.2°F14.0°C 29.1°F-1.6°C 34% 4.0 mph WSW6.4 kmh WSW 2.9 mph4.7 kmh -338605.1 mb - 0.00 in0.0 mm 0.00 in0.0 mm
09:22 AM 57.6°F14.2°C 30.0°F-1.1°C 35% 2.9 mph WSW4.7 kmh WSW 0.9 mph1.4 kmh -338605.1 mb - 0.00 in0.0 mm 0.00 in0.0 mm
09:27 AM 58.1°F14.5°C 29.8°F-1.2°C 34% 2.0 mph WSW3.2 kmh WSW 2.0 mph3.2 kmh -338605.1 mb - 0.00 in0.0 mm 0.00 in0.0 mm
09:32 AM 58.6°F14.8°C 29.7°F-1.3°C 33% 2.0 mph WSW3.2 kmh WSW 0.9 mph1.4 kmh -338605.1 mb - 0.00 in0.0 mm 0.00 in0.0 mm
09:37 AM 59.0°F15.0°C 29.1°F-1.6°C 32% 0.9 mph WSW1.4 kmh WSW -- -338605.1 mb - 0.00 in0.0 mm 0.00 in0.0 mm
09:42 AM 59.2°F15.1°C 30.0°F-1.1°C 33% Calm Calm -- -338605.1 mb - 0.00 in0.0 mm 0.00 in0.0 mm
09:47 AM 59.5°F15.3°C 29.7°F-1.3°C 32% Calm Calm 0.9 mph1.4 kmh -338605.1 mb - 0.00 in0.0 mm 0.00 in0.0 mm
09:52 AM 60.3°F15.7°C 29.5°F-1.4°C 31% Calm Calm -- -338605.1 mb - 0.00 in0.0 mm 0.00 in0.0 mm
09:57 AM 60.8°F16.0°C 30.0°F-1.1°C 31% Calm Calm -- -338605.1 mb - 0.00 in0.0 mm 0.00 in0.0 mm
10:02 AM 61.0°F16.1°C 30.2°F-1.0°C 31% Calm Calm -- -338605.1 mb - 0.00 in0.0 mm 0.00 in0.0 mm
10:07 AM 61.3°F16.3°C 29.7°F-1.3°C 30% Calm Calm 0.9 mph1.4 kmh -338605.1 mb - 0.00 in0.0 mm 0.00 in0.0 mm
10:12 AM 61.9°F16.6°C 30.0°F-1.1°C 30% 0.9 mph WSW1.4 kmh WSW -- -338605.1 mb - 0.00 in0.0 mm 0.00 in0.0 mm
10:17 AM 62.4°F16.9°C 29.7°F-1.3°C 29% 0.9 mph WSW1.4 kmh WSW 2.9 mph4.7 kmh -338605.1 mb - 0.00 in0.0 mm 0.00 in0.0 mm
10:22 AM 62.8°F17.1°C 30.0°F-1.1°C 29% 0.9 mph WSW1.4 kmh WSW 2.0 mph3.2 kmh -338605.1 mb - 0.00 in0.0 mm 0.00 in0.0 mm
10:27 AM 63.3°F17.4°C 29.7°F-1.3°C 28% 2.0 mph W3.2 kmh W 0.9 mph1.4 kmh -338605.1 mb - 0.00 in0.0 mm 0.00 in0.0 mm
10:32 AM 63.7°F17.6°C 29.1°F-1.6°C 27% 2.0 mph W3.2 kmh W 2.0 mph3.2 kmh -338605.1 mb - 0.00 in0.0 mm 0.00 in0.0 mm
10:37 AM 64.0°F17.8°C 29.3°F-1.5°C 27% 2.0 mph W3.2 kmh W 2.9 mph4.7 kmh -338605.1 mb - 0.00 in0.0 mm 0.00 in0.0 mm
10:42 AM 64.6°F18.1°C 28.0°F-2.2°C 25% 2.0 mph W3.2 kmh W 0.9 mph1.4 kmh -338605.1 mb - 0.00 in0.0 mm 0.00 in0.0 mm
10:47 AM 64.6°F18.1°C 28.0°F-2.2°C 25% 2.0 mph W3.2 kmh W 2.0 mph3.2 kmh -338605.1 mb - 0.00 in0.0 mm 0.00 in0.0 mm
10:52 AM 64.8°F18.2°C 28.0°F-2.2°C 25% 0.9 mph W1.4 kmh W 2.0 mph3.2 kmh -338605.1 mb - 0.00 in0.0 mm 0.00 in0.0 mm
10:57 AM 65.1°F18.4°C 27.5°F-2.5°C 24% 2.0 mph W3.2 kmh W -- -338605.1 mb - 0.00 in0.0 mm 0.00 in0.0 mm
11:02 AM 65.5°F18.6°C 27.7°F-2.4°C 24% 0.9 mph W1.4 kmh W 0.9 mph1.4 kmh -338605.1 mb - 0.00 in0.0 mm 0.00 in0.0 mm
11:07 AM 65.8°F18.8°C 25.9°F-3.4°C 22% 0.9 mph W1.4 kmh W -- -338605.1 mb - 0.00 in0.0 mm 0.00 in0.0 mm
11:12 AM 66.4°F19.1°C 27.5°F-2.5°C 23% Calm Calm -- -338605.1 mb - 0.00 in0.0 mm 0.00 in0.0 mm
11:17 AM 66.6°F19.2°C 26.6°F-3.0°C 22% Calm Calm 0.9 mph1.4 kmh -338605.1 mb - 0.00 in0.0 mm 0.00 in0.0 mm
11:22 AM 67.1°F19.5°C 27.0°F-2.8°C 22% 0.9 mph W1.4 kmh W 0.9 mph1.4 kmh -338605.1 mb - 0.00 in0.0 mm 0.00 in0.0 mm
11:27 AM 67.6°F19.8°C 27.5°F-2.5°C 22% 0.9 mph W1.4 kmh W -- -338605.1 mb - 0.00 in0.0 mm 0.00 in0.0 mm
11:32 AM 68.2°F20.1°C 27.9°F-2.3°C 22% 0.9 mph W1.4 kmh W 2.9 mph4.7 kmh -338605.1 mb - 0.00 in0.0 mm 0.00 in0.0 mm
11:37 AM 68.4°F20.2°C 28.0°F-2.2°C 22% 2.0 mph W3.2 kmh W 2.9 mph4.7 kmh -338605.1 mb - 0.00 in0.0 mm 0.00 in0.0 mm
11:42 AM 68.9°F20.5°C 28.4°F-2.0°C 22% 2.0 mph W3.2 kmh W -- -338605.1 mb - 0.00 in0.0 mm 0.00 in0.0 mm
11:47 AM 69.1°F20.6°C 27.5°F-2.5°C 21% 2.0 mph W3.2 kmh W 0.9 mph1.4 kmh -338605.1 mb - 0.00 in0.0 mm 0.00 in0.0 mm
11:52 AM 69.3°F20.7°C 27.7°F-2.4°C 21% 2.0 mph NNE3.2 kmh NNE 2.9 mph4.7 kmh -338605.1 mb - 0.00 in0.0 mm 0.00 in0.0 mm
11:57 AM 69.6°F20.9°C 27.9°F-2.3°C 21% 2.9 mph NNE4.7 kmh NNE 2.9 mph4.7 kmh -338605.1 mb - 0.00 in0.0 mm 0.00 in0.0 mm
12:02 PM 70.0°F21.1°C 29.3°F-1.5°C 22% 2.9 mph NNE4.7 kmh NNE 2.0 mph3.2 kmh -338605.1 mb - 0.00 in0.0 mm 0.00 in0.0 mm
12:07 PM 70.2°F21.2°C 28.4°F-2.0°C 21% 0.9 mph NNE1.4 kmh NNE -- -338605.1 mb - 0.00 in0.0 mm 0.00 in0.0 mm
12:12 PM 70.3°F21.3°C 28.6°F-1.9°C 21% 0.9 mph NNE1.4 kmh NNE 0.9 mph1.4 kmh -338605.1 mb - 0.00 in0.0 mm 0.00 in0.0 mm
12:17 PM 70.5°F21.4°C 28.8°F-1.8°C 21% 2.0 mph NNE3.2 kmh NNE 2.9 mph4.7 kmh -338605.1 mb - 0.00 in0.0 mm 0.00 in0.0 mm
12:22 PM 70.5°F21.4°C 28.8°F-1.8°C 21% 2.0 mph NNE3.2 kmh NNE 4.0 mph6.4 kmh -338605.1 mb - 0.00 in0.0 mm 0.00 in0.0 mm
12:27 PM 70.7°F21.5°C 28.8°F-1.8°C 21% 2.0 mph NNE3.2 kmh NNE 0.9 mph1.4 kmh -338605.1 mb - 0.00 in0.0 mm 0.00 in0.0 mm
12:32 PM 70.5°F21.4°C 28.8°F-1.8°C 21% 2.0 mph NNE3.2 kmh NNE 2.9 mph4.7 kmh -338605.1 mb - 0.00 in0.0 mm 0.00 in0.0 mm
12:37 PM 70.5°F21.4°C 28.8°F-1.8°C 21% 2.0 mph NNE3.2 kmh NNE 0.9 mph1.4 kmh -338605.1 mb - 0.00 in0.0 mm 0.00 in0.0 mm
12:42 PM 70.7°F21.5°C 28.8°F-1.8°C 21% 2.0 mph NNE3.2 kmh NNE 2.0 mph3.2 kmh -338605.1 mb - 0.00 in0.0 mm 0.00 in0.0 mm
12:47 PM 70.7°F21.5°C 28.8°F-1.8°C 21% 2.0 mph NNE3.2 kmh NNE -- -338605.1 mb - 0.00 in0.0 mm 0.00 in0.0 mm
12:52 PM 71.1°F21.7°C 29.1°F-1.6°C 21% 0.9 mph NNE1.4 kmh NNE 4.0 mph6.4 kmh -338605.1 mb - 0.00 in0.0 mm 0.00 in0.0 mm
12:57 PM 71.2°F21.8°C 29.3°F-1.5°C 21% 2.0 mph NNE3.2 kmh NNE 2.0 mph3.2 kmh -338605.1 mb - 0.00 in0.0 mm 0.00 in0.0 mm
01:02 PM 71.4°F21.9°C 29.5°F-1.4°C 21% 2.9 mph NE4.7 kmh NE 2.9 mph4.7 kmh -338605.1 mb - 0.00 in0.0 mm 0.00 in0.0 mm
01:07 PM 71.8°F22.1°C 29.7°F-1.3°C 21% 2.0 mph NE3.2 kmh NE 2.9 mph4.7 kmh -338605.1 mb - 0.00 in0.0 mm 0.00 in0.0 mm
01:12 PM 72.0°F22.2°C 29.8°F-1.2°C 21% 2.0 mph NE3.2 kmh NE 2.0 mph3.2 kmh -338605.1 mb - 0.00 in0.0 mm 0.00 in0.0 mm
01:17 PM 72.1°F22.3°C 28.8°F-1.8°C 20% 0.9 mph NNE1.4 kmh NNE -- -338605.1 mb - 0.00 in0.0 mm 0.00 in0.0 mm
01:22 PM 72.1°F22.3°C 28.8°F-1.8°C 20% 0.9 mph NNE1.4 kmh NNE 2.0 mph3.2 kmh -338605.1 mb - 0.00 in0.0 mm 0.00 in0.0 mm
01:27 PM 72.3°F22.4°C 28.9°F-1.7°C 20% 0.9 mph NNE1.4 kmh NNE -- -338605.1 mb - 0.00 in0.0 mm 0.00 in0.0 mm
01:32 PM 72.3°F22.4°C 28.9°F-1.7°C 20% 0.9 mph NNE1.4 kmh NNE 0.9 mph1.4 kmh -338605.1 mb - 0.00 in0.0 mm 0.00 in0.0 mm
01:37 PM 72.7°F22.6°C 28.0°F-2.2°C 19% 2.0 mph NNE3.2 kmh NNE 0.9 mph1.4 kmh -338605.1 mb - 0.00 in0.0 mm 0.00 in0.0 mm
01:42 PM 73.0°F22.8°C 28.4°F-2.0°C 19% 2.0 mph NNE3.2 kmh NNE -- -338605.1 mb - 0.00 in0.0 mm 0.00 in0.0 mm
01:47 PM 73.2°F22.9°C 28.4°F-2.0°C 19% 2.0 mph NNE3.2 kmh NNE 2.0 mph3.2 kmh -338605.1 mb - 0.00 in0.0 mm 0.00 in0.0 mm
01:52 PM 73.2°F22.9°C 28.4°F-2.0°C 19% 2.0 mph NE3.2 kmh NE 2.0 mph3.2 kmh -338605.1 mb - 0.00 in0.0 mm 0.00 in0.0 mm
01:57 PM 73.6°F23.1°C 27.5°F-2.5°C 18% 2.0 mph NE3.2 kmh NE 0.9 mph1.4 kmh -338605.1 mb - 0.00 in0.0 mm 0.00 in0.0 mm
02:02 PM 73.8°F23.2°C 27.7°F-2.4°C 18% 2.0 mph NE3.2 kmh NE 2.9 mph4.7 kmh -338605.1 mb - 0.00 in0.0 mm 0.00 in0.0 mm
02:07 PM 73.9°F23.3°C 27.7°F-2.4°C 18% 2.0 mph NE3.2 kmh NE 2.0 mph3.2 kmh -338605.1 mb - 0.00 in0.0 mm 0.00 in0.0 mm
02:12 PM 73.9°F23.3°C 27.7°F-2.4°C 18% 2.9 mph NE4.7 kmh NE 4.0 mph6.4 kmh -338605.1 mb - 0.00 in0.0 mm 0.00 in0.0 mm
02:17 PM 74.3°F23.5°C 28.0°F-2.2°C 18% 2.9 mph NE4.7 kmh NE 2.9 mph4.7 kmh -338605.1 mb - 0.00 in0.0 mm 0.00 in0.0 mm
02:22 PM 74.3°F23.5°C 26.6°F-3.0°C 17% 2.9 mph NE4.7 kmh NE 2.9 mph4.7 kmh -338605.1 mb - 0.00 in0.0 mm 0.00 in0.0 mm
02:27 PM 74.5°F23.6°C 28.2°F-2.1°C 18% 2.9 mph NE4.7 kmh NE 2.9 mph4.7 kmh -338605.1 mb - 0.00 in0.0 mm 0.00 in0.0 mm
02:32 PM 74.7°F23.7°C 28.4°F-2.0°C 18% 2.9 mph NE4.7 kmh NE 2.9 mph4.7 kmh -338605.1 mb - 0.00 in0.0 mm 0.00 in0.0 mm
02:37 PM 75.0°F23.9°C 27.3°F-2.6°C 17% 2.9 mph E4.7 kmh E 0.9 mph1.4 kmh -338605.1 mb - 0.00 in0.0 mm 0.00 in0.0 mm
02:42 PM 75.0°F23.9°C 27.3°F-2.6°C 17% 2.9 mph NE4.7 kmh NE 0.9 mph1.4 kmh -338605.1 mb - 0.00 in0.0 mm 0.00 in0.0 mm
02:47 PM 75.2°F24.0°C 28.8°F-1.8°C 18% 2.0 mph NE3.2 kmh NE 0.9 mph1.4 kmh -338605.1 mb - 0.00 in0.0 mm 0.00 in0.0 mm
02:52 PM 75.6°F24.2°C 27.7°F-2.4°C 17% 0.9 mph NE1.4 kmh NE 2.0 mph3.2 kmh -338605.1 mb - 0.00 in0.0 mm 0.00 in0.0 mm
02:57 PM 75.7°F24.3°C 27.9°F-2.3°C 17% 0.9 mph NE1.4 kmh NE -- -338605.1 mb - 0.00 in0.0 mm 0.00 in0.0 mm
03:02 PM 75.7°F24.3°C 27.9°F-2.3°C 17% 2.0 mph E3.2 kmh E 4.9 mph7.9 kmh -338605.1 mb - 0.00 in0.0 mm 0.00 in0.0 mm
03:07 PM 75.7°F24.3°C 27.9°F-2.3°C 17% 4.0 mph NE6.4 kmh NE 0.9 mph1.4 kmh -338605.1 mb - 0.00 in0.0 mm 0.00 in0.0 mm
03:12 PM 75.6°F24.2°C 27.7°F-2.4°C 17% 2.9 mph NE4.7 kmh NE 2.0 mph3.2 kmh -338605.1 mb - 0.00 in0.0 mm 0.00 in0.0 mm
03:17 PM 75.6°F24.2°C 26.2°F-3.2°C 16% 2.0 mph NE3.2 kmh NE 0.9 mph1.4 kmh -338605.1 mb - 0.00 in0.0 mm 0.00 in0.0 mm
03:22 PM 75.6°F24.2°C 26.2°F-3.2°C 16% 2.9 mph ENE4.7 kmh ENE 6.9 mph11.1 kmh -338605.1 mb - 0.00 in0.0 mm 0.00 in0.0 mm
03:27 PM 75.6°F24.2°C 26.2°F-3.2°C 16% 2.9 mph ENE4.7 kmh ENE 6.9 mph11.1 kmh -338605.1 mb - 0.00 in0.0 mm 0.00 in0.0 mm
03:32 PM 75.6°F24.2°C 26.2°F-3.2°C 16% 4.0 mph ENE6.4 kmh ENE 4.9 mph7.9 kmh -338605.1 mb - 0.00 in0.0 mm 0.00 in0.0 mm
03:37 PM 75.6°F24.2°C 26.2°F-3.2°C 16% 4.0 mph ENE6.4 kmh ENE 2.0 mph3.2 kmh -338605.1 mb - 0.00 in0.0 mm 0.00 in0.0 mm
03:42 PM 75.6°F24.2°C 26.2°F-3.2°C 16% 2.9 mph ENE4.7 kmh ENE 4.0 mph6.4 kmh -338605.1 mb - 0.00 in0.0 mm 0.00 in0.0 mm
03:47 PM 75.6°F24.2°C 26.2°F-3.2°C 16% 2.9 mph ENE4.7 kmh ENE 2.0 mph3.2 kmh -338605.1 mb - 0.00 in0.0 mm 0.00 in0.0 mm
03:52 PM 75.6°F24.2°C 26.2°F-3.2°C 16% 2.9 mph ENE4.7 kmh ENE 2.9 mph4.7 kmh -338605.1 mb - 0.00 in0.0 mm 0.00 in0.0 mm
03:57 PM 75.4°F24.1°C 26.1°F-3.3°C 16% 2.9 mph ENE4.7 kmh ENE 2.0 mph3.2 kmh -338605.1 mb - 0.00 in0.0 mm 0.00 in0.0 mm
04:02 PM 75.4°F24.1°C 26.1°F-3.3°C 16% 2.9 mph NE4.7 kmh NE 2.0 mph3.2 kmh -338605.1 mb - 0.00 in0.0 mm 0.00 in0.0 mm
04:07 PM 75.6°F24.2°C 26.2°F-3.2°C 16% 2.9 mph NE4.7 kmh NE 2.9 mph4.7 kmh -338605.1 mb - 0.00 in0.0 mm 0.00 in0.0 mm
04:12 PM 75.6°F24.2°C 26.2°F-3.2°C 16% 2.9 mph NE4.7 kmh NE 0.9 mph1.4 kmh -338605.1 mb - 0.00 in0.0 mm 0.00 in0.0 mm
04:17 PM 75.4°F24.1°C 26.1°F-3.3°C 16% 2.9 mph NE4.7 kmh NE 0.9 mph1.4 kmh -338605.1 mb - 0.00 in0.0 mm 0.00 in0.0 mm
04:22 PM 75.2°F24.0°C 25.9°F-3.4°C 16% 2.0 mph NNE3.2 kmh NNE 2.0 mph3.2 kmh -338605.1 mb - 0.00 in0.0 mm 0.00 in0.0 mm
04:27 PM 75.0°F23.9°C 25.7°F-3.5°C 16% 0.9 mph NNE1.4 kmh NNE -- -338605.1 mb - 0.00 in0.0 mm 0.00 in0.0 mm
04:32 PM 74.7°F23.7°C 25.5°F-3.6°C 16% 0.9 mph NNE1.4 kmh NNE 0.9 mph1.4 kmh -338605.1 mb - 0.00 in0.0 mm 0.00 in0.0 mm
04:37 PM 74.7°F23.7°C 25.5°F-3.6°C 16% 0.9 mph NNE1.4 kmh NNE 0.9 mph1.4 kmh -338605.1 mb - 0.00 in0.0 mm 0.00 in0.0 mm
04:42 PM 74.7°F23.7°C 25.5°F-3.6°C 16% 0.9 mph NE1.4 kmh NE 2.9 mph4.7 kmh -338605.1 mb - 0.00 in0.0 mm 0.00 in0.0 mm
04:47 PM 74.5°F23.6°C 25.3°F-3.7°C 16% 2.0 mph NE3.2 kmh NE 2.9 mph4.7 kmh -338605.1 mb - 0.00 in0.0 mm 0.00 in0.0 mm
04:52 PM 74.3°F23.5°C 25.2°F-3.8°C 16% 2.9 mph NE4.7 kmh NE 4.0 mph6.4 kmh -338605.1 mb - 0.00 in0.0 mm 0.00 in0.0 mm
04:57 PM 74.1°F23.4°C 25.0°F-3.9°C 16% 4.0 mph NE6.4 kmh NE 2.9 mph4.7 kmh -338605.1 mb - 0.00 in0.0 mm 0.00 in0.0 mm
05:02 PM 73.9°F23.3°C 25.0°F-3.9°C 16% 4.0 mph NE6.4 kmh NE 4.0 mph6.4 kmh -338605.1 mb - 0.00 in0.0 mm 0.00 in0.0 mm
05:07 PM 73.8°F23.2°C 26.2°F-3.2°C 17% 2.9 mph NE4.7 kmh NE 2.9 mph4.7 kmh -338605.1 mb - 0.00 in0.0 mm 0.00 in0.0 mm
05:12 PM 73.4°F23.0°C 25.9°F-3.4°C 17% 2.9 mph NE4.7 kmh NE 4.9 mph7.9 kmh -338605.1 mb - 0.00 in0.0 mm 0.00 in0.0 mm
05:17 PM 73.0°F22.8°C 25.7°F-3.5°C 17% 2.9 mph NE4.7 kmh NE 4.9 mph7.9 kmh -338605.1 mb - 0.00 in0.0 mm 0.00 in0.0 mm
05:22 PM 72.9°F22.7°C 27.0°F-2.8°C 18% 4.0 mph NE6.4 kmh NE 2.0 mph3.2 kmh -338605.1 mb - 0.00 in0.0 mm 0.00 in0.0 mm
05:27 PM 72.7°F22.6°C 26.8°F-2.9°C 18% 2.9 mph NE4.7 kmh NE 2.0 mph3.2 kmh -338605.1 mb - 0.00 in0.0 mm 0.00 in0.0 mm
05:32 PM 72.1°F22.3°C 26.2°F-3.2°C 18% 2.0 mph NE3.2 kmh NE 2.0 mph3.2 kmh -338605.1 mb - 0.00 in0.0 mm 0.00 in0.0 mm
05:37 PM 71.8°F22.1°C 27.3°F-2.6°C 19% 2.0 mph NE3.2 kmh NE 2.0 mph3.2 kmh -338605.1 mb - 0.00 in0.0 mm 0.00 in0.0 mm
05:42 PM 71.2°F21.8°C 26.8°F-2.9°C 19% 2.0 mph NE3.2 kmh NE 2.9 mph4.7 kmh -338605.1 mb - 0.00 in0.0 mm 0.00 in0.0 mm
05:47 PM 70.7°F21.5°C 27.7°F-2.4°C 20% 2.0 mph NE3.2 kmh NE 2.0 mph3.2 kmh -338605.1 mb - 0.00 in0.0 mm 0.00 in0.0 mm
05:52 PM 70.3°F21.3°C 27.3°F-2.6°C 20% 2.0 mph NE3.2 kmh NE 2.0 mph3.2 kmh -338605.1 mb - 0.00 in0.0 mm 0.00 in0.0 mm
05:57 PM 70.0°F21.1°C 28.2°F-2.1°C 21% 0.9 mph NE1.4 kmh NE 0.9 mph1.4 kmh -338605.1 mb - 0.00 in0.0 mm 0.00 in0.0 mm
06:02 PM 69.8°F21.0°C 28.0°F-2.2°C 21% 0.9 mph NE1.4 kmh NE -- -338605.1 mb - 0.00 in0.0 mm 0.00 in0.0 mm
06:07 PM 69.3°F20.7°C 28.8°F-1.8°C 22% 0.9 mph NE1.4 kmh NE 2.0 mph3.2 kmh -338605.1 mb - 0.00 in0.0 mm 0.00 in0.0 mm
06:12 PM 68.4°F20.2°C 29.1°F-1.6°C 23% 0.9 mph NE1.4 kmh NE 0.9 mph1.4 kmh -338605.1 mb - 0.00 in0.0 mm 0.00 in0.0 mm
06:17 PM 68.2°F20.1°C 30.0°F-1.1°C 24% 0.9 mph NE1.4 kmh NE 0.9 mph1.4 kmh -338605.1 mb - 0.00 in0.0 mm 0.00 in0.0 mm
06:22 PM 67.8°F19.9°C 28.6°F-1.9°C 23% 0.9 mph NE1.4 kmh NE 0.9 mph1.4 kmh -338605.1 mb - 0.00 in0.0 mm 0.00 in0.0 mm
06:27 PM 67.5°F19.7°C 29.5°F-1.4°C 24% 0.9 mph NE1.4 kmh NE -- -338605.1 mb - 0.00 in0.0 mm 0.00 in0.0 mm
06:32 PM 67.1°F19.5°C 30.0°F-1.1°C 25% Calm Calm 0.9 mph1.4 kmh -338605.1 mb - 0.00 in0.0 mm 0.00 in0.0 mm
06:37 PM 66.7°F19.3°C 30.7°F-0.7°C 26% Calm Calm 0.9 mph1.4 kmh -338605.1 mb - 0.00 in0.0 mm 0.00 in0.0 mm
06:42 PM 66.0°F18.9°C 30.2°F-1.0°C 26% 0.9 mph NE1.4 kmh NE 0.9 mph1.4 kmh -338605.1 mb - 0.00 in0.0 mm 0.00 in0.0 mm
06:47 PM 65.7°F18.7°C 30.7°F-0.7°C 27% 0.9 mph NE1.4 kmh NE -- -338605.1 mb - 0.00 in0.0 mm 0.00 in0.0 mm
06:52 PM 64.9°F18.3°C 30.2°F-1.0°C 27% 0.9 mph NE1.4 kmh NE -- -338605.1 mb - 0.00 in0.0 mm 0.00 in0.0 mm
06:57 PM 64.2°F17.9°C 30.4°F-0.9°C 28% 0.9 mph NE1.4 kmh NE 0.9 mph1.4 kmh -338605.1 mb - 0.00 in0.0 mm 0.00 in0.0 mm
07:02 PM 64.0°F17.8°C 31.1°F-0.5°C 29% 0.9 mph NE1.4 kmh NE -- -338605.1 mb - 0.00 in0.0 mm 0.00 in0.0 mm
07:07 PM 63.3°F17.4°C 30.6°F-0.8°C 29% Calm Calm -- -338605.1 mb - 0.00 in0.0 mm 0.00 in0.0 mm
07:12 PM 62.4°F16.9°C 30.6°F-0.8°C 30% Calm Calm 2.9 mph4.7 kmh -338605.1 mb - 0.00 in0.0 mm 0.00 in0.0 mm
07:17 PM 62.1°F16.7°C 31.1°F-0.5°C 31% 2.0 mph N3.2 kmh N 2.9 mph4.7 kmh -338605.1 mb - 0.00 in0.0 mm 0.00 in0.0 mm
07:22 PM 61.7°F16.5°C 31.5°F-0.3°C 32% 2.9 mph N4.7 kmh N 2.9 mph4.7 kmh -338605.1 mb - 0.00 in0.0 mm 0.00 in0.0 mm
07:27 PM 61.5°F16.4°C 30.6°F-0.8°C 31% 4.0 mph 6.4 kmh 4.9 mph7.9 kmh -338605.1 mb - 0.00 in0.0 mm 0.00 in0.0 mm
07:32 PM 61.5°F16.4°C 30.6°F-0.8°C 31% 4.9 mph SW7.9 kmh SW 8.1 mph13.0 kmh -338605.1 mb - 0.00 in0.0 mm 0.00 in0.0 mm
07:37 PM 61.3°F16.3°C 30.4°F-0.9°C 31% 6.0 mph SW9.7 kmh SW 6.9 mph11.1 kmh -338605.1 mb - 0.00 in0.0 mm 0.00 in0.0 mm
07:42 PM 61.3°F16.3°C 29.7°F-1.3°C 30% 6.0 mph SW9.7 kmh SW 4.9 mph7.9 kmh -338605.1 mb - 0.00 in0.0 mm 0.00 in0.0 mm
07:47 PM 61.3°F16.3°C 29.7°F-1.3°C 30% 4.9 mph SSW7.9 kmh SSW 0.9 mph1.4 kmh -338605.1 mb - 0.00 in0.0 mm 0.00 in0.0 mm
07:52 PM 61.3°F16.3°C 30.4°F-0.9°C 31% 2.0 mph SSW3.2 kmh SSW -- -338605.1 mb - 0.00 in0.0 mm 0.00 in0.0 mm
07:57 PM 61.3°F16.3°C 30.4°F-0.9°C 31% 0.9 mph S1.4 kmh S 2.9 mph4.7 kmh -338605.1 mb - 0.00 in0.0 mm 0.00 in0.0 mm
08:02 PM 61.2°F16.2°C 30.2°F-1.0°C 31% 2.0 mph S3.2 kmh S 4.0 mph6.4 kmh -338605.1 mb - 0.00 in0.0 mm 0.00 in0.0 mm
08:07 PM 60.8°F16.0°C 30.0°F-1.1°C 31% 2.9 mph S4.7 kmh S 4.0 mph6.4 kmh -338605.1 mb - 0.00 in0.0 mm 0.00 in0.0 mm
08:12 PM 60.8°F16.0°C 30.0°F-1.1°C 31% 2.9 mph S4.7 kmh S 2.9 mph4.7 kmh -338605.1 mb - 0.00 in0.0 mm 0.00 in0.0 mm
08:17 PM 61.0°F16.1°C 30.2°F-1.0°C 31% 2.9 mph S4.7 kmh S 2.0 mph3.2 kmh -338605.1 mb - 0.00 in0.0 mm 0.00 in0.0 mm
08:22 PM 61.0°F16.1°C 30.2°F-1.0°C 31% 2.0 mph S3.2 kmh S 2.0 mph3.2 kmh -338605.1 mb - 0.00 in0.0 mm 0.00 in0.0 mm
08:27 PM 60.8°F16.0°C 30.7°F-0.7°C 32% 0.9 mph S1.4 kmh S 0.9 mph1.4 kmh -338605.1 mb - 0.00 in0.0 mm 0.00 in0.0 mm
08:32 PM 60.3°F15.7°C 31.1°F-0.5°C 33% 0.9 mph S1.4 kmh S -- -338605.1 mb - 0.00 in0.0 mm 0.00 in0.0 mm
08:37 PM 59.9°F15.5°C 30.7°F-0.7°C 33% Calm Calm 0.9 mph1.4 kmh -338605.1 mb - 0.00 in0.0 mm 0.00 in0.0 mm
08:42 PM 59.7°F15.4°C 30.6°F-0.8°C 33% Calm Calm -- -338605.1 mb - 0.00 in0.0 mm 0.00 in0.0 mm
08:47 PM 59.5°F15.3°C 30.4°F-0.9°C 33% Calm Calm -- -338605.1 mb - 0.00 in0.0 mm 0.00 in0.0 mm
08:52 PM 59.5°F15.3°C 30.4°F-0.9°C 33% Calm Calm -- -338605.1 mb - 0.00 in0.0 mm 0.00 in0.0 mm
08:57 PM 59.2°F15.1°C 30.7°F-0.7°C 34% Calm Calm -- -338605.1 mb - 0.00 in0.0 mm 0.00 in0.0 mm
09:02 PM 58.6°F14.8°C 30.4°F-0.9°C 34% Calm Calm -- -338605.1 mb - 0.00 in0.0 mm 0.00 in0.0 mm
09:07 PM 58.5°F14.7°C 30.9°F-0.6°C 35% Calm Calm -- -338605.1 mb - 0.00 in0.0 mm 0.00 in0.0 mm
09:12 PM 58.3°F14.6°C 30.7°F-0.7°C 35% Calm Calm -- -338605.1 mb - 0.00 in0.0 mm 0.00 in0.0 mm
09:17 PM 58.1°F14.5°C 30.6°F-0.8°C 35% Calm Calm -- -338605.1 mb - 0.00 in0.0 mm 0.00 in0.0 mm
09:22 PM 57.9°F14.4°C 30.4°F-0.9°C 35% Calm Calm -- -338605.1 mb - 0.00 in0.0 mm 0.00 in0.0 mm
09:27 PM 57.9°F14.4°C 30.4°F-0.9°C 35% Calm Calm -- -338605.1 mb - 0.00 in0.0 mm 0.00 in0.0 mm
09:32 PM 57.7°F14.3°C 30.2°F-1.0°C 35% Calm Calm -- -338605.1 mb - 0.00 in0.0 mm 0.00 in0.0 mm
09:37 PM 57.2°F14.0°C 31.1°F-0.5°C 37% Calm Calm -- -338605.1 mb - 0.00 in0.0 mm 0.00 in0.0 mm
09:42 PM 56.7°F13.7°C 30.7°F-0.7°C 37% Calm Calm 0.9 mph1.4 kmh -338605.1 mb - 0.00 in0.0 mm 0.00 in0.0 mm
09:47 PM 56.1°F13.4°C 30.9°F-0.6°C 38% 0.9 mph S1.4 kmh S 0.9 mph1.4 kmh -338605.1 mb - 0.00 in0.0 mm 0.00 in0.0 mm
09:52 PM 55.9°F13.3°C 30.7°F-0.7°C 38% 2.0 mph SSW3.2 kmh SSW 2.9 mph4.7 kmh -338605.1 mb - 0.00 in0.0 mm 0.00 in0.0 mm
09:57 PM 55.2°F12.9°C 30.7°F-0.7°C 39% 2.0 mph WSW3.2 kmh WSW 2.9 mph4.7 kmh -338605.1 mb - 0.00 in0.0 mm 0.00 in0.0 mm
10:02 PM 54.9°F12.7°C 30.4°F-0.9°C 39% 2.9 mph W4.7 kmh W 4.0 mph6.4 kmh -338605.1 mb - 0.00 in0.0 mm 0.00 in0.0 mm
10:07 PM 54.1°F12.3°C 30.4°F-0.9°C 40% 4.0 mph W6.4 kmh W 4.0 mph6.4 kmh -338605.1 mb - 0.00 in0.0 mm 0.00 in0.0 mm
10:12 PM 53.4°F11.9°C 30.4°F-0.9°C 41% 4.9 mph W7.9 kmh W 4.0 mph6.4 kmh -338605.1 mb - 0.00 in0.0 mm 0.00 in0.0 mm
10:17 PM 53.4°F11.9°C 30.9°F-0.6°C 42% 4.9 mph W7.9 kmh W 4.9 mph7.9 kmh -338605.1 mb - 0.00 in0.0 mm 0.00 in0.0 mm
10:22 PM 53.2°F11.8°C 30.7°F-0.7°C 42% 4.9 mph WSW7.9 kmh WSW 4.0 mph6.4 kmh -338605.1 mb - 0.00 in0.0 mm 0.00 in0.0 mm
10:27 PM 53.2°F11.8°C 30.7°F-0.7°C 42% 4.0 mph WSW6.4 kmh WSW 4.0 mph6.4 kmh -338605.1 mb - 0.00 in0.0 mm 0.00 in0.0 mm
10:32 PM 53.1°F11.7°C 30.6°F-0.8°C 42% 2.9 mph WSW4.7 kmh WSW 2.0 mph3.2 kmh -338605.1 mb - 0.00 in0.0 mm 0.00 in0.0 mm
10:37 PM 53.1°F11.7°C 30.6°F-0.8°C 42% 2.0 mph SW3.2 kmh SW 0.9 mph1.4 kmh -338605.1 mb - 0.00 in0.0 mm 0.00 in0.0 mm
10:42 PM 52.9°F11.6°C 30.9°F-0.6°C 43% 0.9 mph SSW1.4 kmh SSW -- -338605.1 mb - 0.00 in0.0 mm 0.00 in0.0 mm
10:47 PM 52.9°F11.6°C 30.9°F-0.6°C 43% Calm Calm -- -338605.1 mb - 0.00 in0.0 mm 0.00 in0.0 mm
10:52 PM 52.9°F11.6°C 30.9°F-0.6°C 43% Calm Calm -- -338605.1 mb - 0.00 in0.0 mm 0.00 in0.0 mm
10:57 PM 52.9°F11.6°C 30.9°F-0.6°C 43% Calm Calm 0.9 mph1.4 kmh -338605.1 mb - 0.00 in0.0 mm 0.00 in0.0 mm
11:02 PM 52.9°F11.6°C 30.9°F-0.6°C 43% 2.0 mph S3.2 kmh S 4.9 mph7.9 kmh -338605.1 mb - 0.00 in0.0 mm 0.00 in0.0 mm
11:07 PM 52.5°F11.4°C 31.3°F-0.4°C 44% 2.9 mph S4.7 kmh S -- -338605.1 mb - 0.00 in0.0 mm 0.00 in0.0 mm
11:12 PM 52.5°F11.4°C 30.7°F-0.7°C 43% 0.9 mph S1.4 kmh S -- -338605.1 mb - 0.00 in0.0 mm 0.00 in0.0 mm
11:17 PM 52.5°F11.4°C 30.7°F-0.7°C 43% Calm Calm -- -338605.1 mb - 0.00 in0.0 mm 0.00 in0.0 mm
11:22 PM 51.8°F11.0°C 31.1°F-0.5°C 45% Calm Calm -- -338605.1 mb - 0.00 in0.0 mm 0.00 in0.0 mm
11:27 PM 51.6°F10.9°C 30.9°F-0.6°C 45% Calm Calm -- -338605.1 mb - 0.00 in0.0 mm 0.00 in0.0 mm
11:32 PM 51.4°F10.8°C 30.7°F-0.7°C 45% Calm Calm -- -338605.1 mb - 0.00 in0.0 mm 0.00 in0.0 mm
11:37 PM 51.4°F10.8°C 30.7°F-0.7°C 45% Calm Calm -- -338605.1 mb - 0.00 in0.0 mm 0.00 in0.0 mm
11:42 PM 51.4°F10.8°C 30.7°F-0.7°C 45% Calm Calm -- -338605.1 mb - 0.00 in0.0 mm 0.00 in0.0 mm
11:47 PM 51.3°F10.7°C 30.6°F-0.8°C 45% Calm Calm -- -338605.1 mb - 0.00 in0.0 mm 0.00 in0.0 mm
11:52 PM 51.4°F10.8°C 30.7°F-0.7°C 45% Calm Calm -- -338605.1 mb - 0.00 in0.0 mm 0.00 in0.0 mm
11:57 PM 51.3°F10.7°C 30.6°F-0.8°C 45% Calm Calm -- -338605.1 mb - 0.00 in0.0 mm 0.00 in0.0 mm